Time;durP1;ratioP1;P1;durP2;ratioP2;P2;SDS_P1;SDS_P2;PMS_P1;PMS_P2;Temp;Humidity;BMP_temperature;BMP_pressure;BME280_temperature;BME280_humidity;BME280_pressure;Samples;Min_cycle;Max_cycle;Signal;HPM_P1;HPM_P2
2023/05/12 00:00:03;;;;;;;12.75;5.88;;;12.60;99.90;;;;;;5034796;28;20382;-72
2023/05/12 00:02:28;;;;;;;10.57;4.65;;;12.50;99.90;;;;;;5031654;28;20041;-71
2023/05/12 00:04:54;;;;;;;9.55;4.13;;;12.60;99.90;;;;;;5031476;28;20037;-72
2023/05/12 00:07:20;;;;;;;11.63;4.45;;;12.60;99.90;;;;;;5032041;28;20501;-71
2023/05/12 00:09:45;;;;;;;9.05;4.55;;;12.60;99.90;;;;;;5029321;28;20485;-71
2023/05/12 00:12:11;;;;;;;14.43;7.03;;;12.60;99.90;;;;;;5030982;28;20025;-71
2023/05/12 00:14:36;;;;;;;14.23;6.90;;;12.60;99.90;;;;;;5031588;28;20033;-71
2023/05/12 00:17:03;;;;;;;10.63;4.68;;;12.70;99.90;;;;;;5029943;28;20508;-71
2023/05/12 00:19:29;;;;;;;13.10;5.93;;;12.70;99.90;;;;;;5031823;28;20457;-72
2023/05/12 00:21:55;;;;;;;14.98;7.28;;;12.60;99.90;;;;;;5031670;28;20025;-71
2023/05/12 00:24:20;;;;;;;15.32;6.88;;;12.60;99.90;;;;;;5032086;28;20466;-71
2023/05/12 00:26:48;;;;;;;15.82;7.10;;;12.60;99.90;;;;;;5021887;28;20029;-72
2023/05/12 00:29:14;;;;;;;11.73;5.68;;;12.70;99.90;;;;;;5030060;28;20041;-72
2023/05/12 00:31:39;;;;;;;11.55;5.45;;;12.70;99.90;;;;;;5030773;28;20497;-71
2023/05/12 00:34:05;;;;;;;11.65;5.20;;;12.70;99.90;;;;;;5032959;28;20029;-72
2023/05/12 00:36:31;;;;;;;11.02;4.93;;;12.70;99.90;;;;;;5032864;28;20385;-72
2023/05/12 00:38:59;;;;;;;13.82;6.28;;;12.70;99.90;;;;;;5031711;28;20104;-72
2023/05/12 00:41:25;;;;;;;12.85;5.10;;;12.80;99.90;;;;;;5030309;28;20040;-72
2023/05/12 00:43:51;;;;;;;10.23;4.85;;;12.80;99.90;;;;;;5036418;28;20045;-71
2023/05/12 00:46:17;;;;;;;16.20;6.65;;;12.80;99.90;;;;;;5027306;28;20079;-72
2023/05/12 00:48:48;;;;;;;14.05;5.20;;;12.80;99.90;;;;;;5034623;28;20035;-72
2023/05/12 00:51:15;;;;;;;15.13;5.97;;;12.80;99.90;;;;;;5035365;28;20025;-72
2023/05/12 00:53:47;;;;;;;15.23;5.50;;;12.80;99.90;;;;;;5031616;28;20101;-72
2023/05/12 00:56:15;;;;;;;14.03;5.73;;;12.80;99.90;;;;;;5030506;28;20393;-72
2023/05/12 00:58:41;;;;;;;14.00;5.45;;;12.80;99.90;;;;;;5038817;28;20427;-71
2023/05/12 01:01:06;;;;;;;12.00;4.93;;;12.80;99.90;;;;;;5038938;28;20468;-71
2023/05/12 01:03:32;;;;;;;11.20;5.10;;;12.80;99.90;;;;;;5046229;28;20080;-71
2023/05/12 01:06:16;;;;;;;9.40;3.90;;;12.80;99.90;;;;;;5034898;28;20112;-72
2023/05/12 01:08:42;;;;;;;10.15;4.10;;;12.80;99.90;;;;;;5042395;28;20082;-71
2023/05/12 01:11:08;;;;;;;8.63;3.65;;;12.80;99.90;;;;;;5044773;28;20536;-71
2023/05/12 01:13:34;;;;;;;11.57;4.07;;;12.80;99.90;;;;;;5055190;28;20037;-71
2023/05/12 01:16:01;;;;;;;8.30;3.92;;;12.80;99.90;;;;;;5038592;28;20139;-71
2023/05/12 01:18:28;;;;;;;13.18;4.50;;;12.80;99.90;;;;;;5048839;28;20104;-72
2023/05/12 01:20:55;;;;;;;10.68;4.40;;;12.70;99.90;;;;;;5041581;28;20033;-71
2023/05/12 01:23:26;;;;;;;9.23;3.88;;;12.70;99.90;;;;;;5048303;28;20060;-71
2023/05/12 01:25:52;;;;;;;10.60;4.60;;;12.70;99.90;;;;;;5037689;28;20033;-71
2023/05/12 01:28:19;;;;;;;10.63;5.13;;;12.70;99.90;;;;;;5050315;28;20063;-71
2023/05/12 01:30:45;;;;;;;6.18;3.70;;;12.60;99.90;;;;;;5040500;28;20021;-71
2023/05/12 01:33:11;;;;;;;13.00;4.68;;;12.60;99.90;;;;;;5046685;28;20048;-71
2023/05/12 01:35:36;;;;;;;12.20;5.53;;;12.60;99.90;;;;;;5039231;28;20378;-71
2023/05/12 01:38:03;;;;;;;9.88;4.65;;;12.50;99.90;;;;;;5050975;28;20045;-71
2023/05/12 01:40:29;;;;;;;11.20;4.70;;;12.40;99.90;;;;;;5037249;28;20478;-71
2023/05/12 01:42:54;;;;;;;15.52;5.68;;;12.30;99.90;;;;;;5043068;28;20040;-70
2023/05/12 01:45:20;;;;;;;12.38;4.13;;;12.30;99.90;;;;;;5041534;28;20370;-70
2023/05/12 01:47:45;;;;;;;7.97;4.38;;;12.30;99.90;;;;;;5049675;28;20067;-70
2023/05/12 01:50:11;;;;;;;15.98;5.90;;;12.30;99.90;;;;;;5037913;28;20447;-70
2023/05/12 01:52:37;;;;;;;15.43;6.43;;;12.30;99.90;;;;;;5044475;28;20471;-70
2023/05/12 01:55:03;;;;;;;12.80;5.57;;;12.20;99.90;;;;;;5044047;28;20041;-70
2023/05/12 01:57:28;;;;;;;16.73;6.88;;;12.20;99.90;;;;;;5048724;28;20028;-69
2023/05/12 01:59:54;;;;;;;14.95;6.32;;;12.20;99.90;;;;;;5036681;28;20861;-70
2023/05/12 02:02:19;;;;;;;11.55;5.75;;;12.20;99.90;;;;;;5032469;28;20029;-70
2023/05/12 02:04:45;;;;;;;12.85;5.82;;;12.20;99.90;;;;;;5033631;28;20049;-70
2023/05/12 02:07:14;;;;;;;14.98;6.13;;;12.20;99.90;;;;;;5034434;28;20032;-71
2023/05/12 02:09:40;;;;;;;15.48;6.10;;;12.20;99.90;;;;;;5033954;28;20044;-70
2023/05/12 02:12:06;;;;;;;14.23;6.18;;;12.30;99.90;;;;;;5034093;28;20429;-70
2023/05/12 02:14:32;;;;;;;12.73;4.72;;;12.30;99.90;;;;;;5031952;28;20109;-70
2023/05/12 02:16:58;;;;;;;10.15;5.15;;;12.30;99.90;;;;;;5023540;28;20116;-69
2023/05/12 02:19:24;;;;;;;17.85;6.05;;;12.30;99.90;;;;;;5029962;28;20108;-70
2023/05/12 02:21:49;;;;;;;11.25;5.18;;;12.30;99.90;;;;;;5032690;28;20466;-70
2023/05/12 02:24:15;;;;;;;16.73;6.38;;;12.30;99.90;;;;;;5033465;28;21586;-69
2023/05/12 02:26:41;;;;;;;13.18;5.70;;;12.30;99.90;;;;;;5033579;28;20073;-70
2023/05/12 02:29:07;;;;;;;11.77;5.43;;;12.30;99.90;;;;;;5032446;28;20029;-69
2023/05/12 02:31:32;;;;;;;13.20;6.03;;;12.20;99.90;;;;;;5033030;28;20105;-69
2023/05/12 02:33:58;;;;;;;14.07;5.55;;;12.30;99.90;;;;;;5032210;28;20057;-69
2023/05/12 02:36:24;;;;;;;14.48;6.30;;;12.20;99.90;;;;;;5023697;28;20030;-70
2023/05/12 02:38:49;;;;;;;13.40;6.03;;;12.20;99.90;;;;;;5030524;28;20553;-69
2023/05/12 02:41:15;;;;;;;18.38;7.47;;;12.20;99.90;;;;;;5033543;28;20040;-70
2023/05/12 02:43:41;;;;;;;14.75;5.75;;;12.20;99.90;;;;;;5033405;28;20473;-71
2023/05/12 02:46:06;;;;;;;12.60;5.97;;;12.20;99.90;;;;;;5032821;28;20033;-69
2023/05/12 02:48:32;;;;;;;16.45;7.53;;;12.20;99.90;;;;;;5032493;28;20056;-69
2023/05/12 02:50:57;;;;;;;19.20;7.65;;;12.20;99.90;;;;;;5033109;28;20079;-69
2023/05/12 02:53:23;;;;;;;15.32;7.18;;;12.20;99.90;;;;;;5031526;28;20036;-70
2023/05/12 02:55:49;;;;;;;17.73;7.13;;;12.20;99.90;;;;;;5033055;28;20036;-70
2023/05/12 02:58:15;;;;;;;15.07;6.35;;;12.20;99.90;;;;;;5032580;28;20135;-71
2023/05/12 03:00:40;;;;;;;17.88;6.70;;;12.20;99.90;;;;;;5031808;28;20041;-71
2023/05/12 03:03:06;;;;;;;19.13;7.32;;;12.20;99.90;;;;;;5032320;28;20128;-70
2023/05/12 03:05:32;;;;;;;15.07;6.15;;;12.20;99.90;;;;;;5033463;28;20520;-70
2023/05/12 03:07:57;;;;;;;18.65;6.20;;;12.30;99.90;;;;;;5032851;28;20064;-72
2023/05/12 03:10:23;;;;;;;10.57;4.88;;;12.30;99.90;;;;;;5029073;28;20390;-71
2023/05/12 03:12:49;;;;;;;14.45;5.25;;;12.20;99.90;;;;;;5032358;28;20080;-70
2023/05/12 03:15:14;;;;;;;9.45;3.95;;;12.20;99.90;;;;;;5033218;28;20041;-72
2023/05/12 03:17:40;;;;;;;10.18;3.78;;;12.20;99.90;;;;;;5032718;28;20025;-69
2023/05/12 03:20:07;;;;;;;7.90;3.35;;;12.20;99.90;;;;;;5032441;28;20079;-71
2023/05/12 03:22:33;;;;;;;7.50;3.97;;;12.10;99.90;;;;;;5032791;28;20104;-72
2023/05/12 03:24:58;;;;;;;7.72;3.22;;;12.10;99.90;;;;;;5030537;28;20544;-70
2023/05/12 03:27:24;;;;;;;7.15;3.05;;;12.10;99.90;;;;;;5031374;28;20023;-70
2023/05/12 03:29:50;;;;;;;9.25;3.47;;;12.00;99.90;;;;;;5031212;28;20037;-69
2023/05/12 03:32:16;;;;;;;6.20;3.15;;;12.00;99.90;;;;;;5032271;28;20029;-70
2023/05/12 03:34:41;;;;;;;6.95;3.45;;;12.00;99.90;;;;;;5032904;28;20025;-70
2023/05/12 03:37:07;;;;;;;6.30;3.33;;;12.00;99.90;;;;;;5032045;28;20053;-72
2023/05/12 03:39:32;;;;;;;9.55;3.90;;;12.00;99.90;;;;;;5029534;28;20028;-72
2023/05/12 03:41:58;;;;;;;7.38;4.00;;;11.90;99.90;;;;;;5023346;28;20101;-71
2023/05/12 03:44:24;;;;;;;7.03;3.58;;;11.90;99.90;;;;;;5032455;28;20528;-71
2023/05/12 03:46:49;;;;;;;10.07;4.45;;;11.90;99.90;;;;;;5032160;28;20029;-71
2023/05/12 03:49:15;;;;;;;11.73;5.15;;;11.90;99.90;;;;;;5032244;28;20030;-70
2023/05/12 03:51:40;;;;;;;10.45;4.75;;;11.90;99.90;;;;;;5032039;28;20064;-70
2023/05/12 03:54:06;;;;;;;12.38;5.15;;;11.90;99.90;;;;;;5032216;28;20573;-69
2023/05/12 03:56:31;;;;;;;11.68;5.30;;;11.90;99.90;;;;;;5032560;28;20456;-69
2023/05/12 03:58:57;;;;;;;11.85;4.53;;;11.80;99.90;;;;;;5030512;28;20041;-71
2023/05/12 04:01:22;;;;;;;12.18;4.63;;;11.90;99.90;;;;;;5030829;28;20029;-70
2023/05/12 04:03:48;;;;;;;11.73;5.53;;;11.90;99.90;;;;;;5031805;28;20470;-68
2023/05/12 04:06:13;;;;;;;13.07;5.82;;;11.80;99.90;;;;;;5032093;28;20103;-69
2023/05/12 04:08:39;;;;;;;12.50;5.88;;;11.90;99.90;;;;;;5032211;28;20079;-69
2023/05/12 04:11:05;;;;;;;15.02;6.60;;;11.80;99.90;;;;;;5032447;28;20044;-69
2023/05/12 04:13:31;;;;;;;12.73;6.20;;;11.90;99.90;;;;;;5032690;28;20038;-71
2023/05/12 04:15:57;;;;;;;13.93;6.38;;;11.90;99.90;;;;;;5031731;28;20033;-69
2023/05/12 04:18:24;;;;;;;14.52;7.20;;;11.90;99.90;;;;;;5031699;28;20026;-69
2023/05/12 04:20:50;;;;;;;13.48;6.07;;;11.90;99.90;;;;;;5029731;28;20025;-70
2023/05/12 04:23:16;;;;;;;14.13;6.63;;;11.90;99.90;;;;;;5028189;28;20037;-70
2023/05/12 04:25:42;;;;;;;15.88;6.55;;;11.90;99.90;;;;;;5031310;28;20041;-69
2023/05/12 04:28:09;;;;;;;16.27;7.00;;;12.00;99.90;;;;;;5030801;28;20065;-69
2023/05/12 04:30:36;;;;;;;16.73;6.43;;;12.00;99.90;;;;;;5030313;28;20115;-71
2023/05/12 04:33:01;;;;;;;14.80;6.88;;;12.10;99.90;;;;;;5031765;28;20112;-70
2023/05/12 04:35:27;;;;;;;18.40;7.93;;;12.10;99.90;;;;;;5031664;28;20140;-68
2023/05/12 04:37:53;;;;;;;15.02;7.20;;;12.10;99.90;;;;;;5030039;28;20427;-69
2023/05/12 04:40:19;;;;;;;20.13;8.38;;;12.10;99.90;;;;;;5035520;28;20029;-69
2023/05/12 04:42:44;;;;;;;18.77;8.88;;;12.10;99.90;;;;;;5036071;28;20037;-69
2023/05/12 04:45:10;;;;;;;16.13;8.10;;;12.20;99.90;;;;;;5034577;28;20034;-70
2023/05/12 04:47:36;;;;;;;21.25;9.10;;;12.20;99.90;;;;;;5034074;28;20048;-70
2023/05/12 04:50:03;;;;;;;21.65;8.77;;;12.20;99.90;;;;;;5033920;28;20053;-70
2023/05/12 04:52:29;;;;;;;24.63;9.80;;;12.20;99.90;;;;;;5035478;28;20029;-70
2023/05/12 04:54:54;;;;;;;26.60;10.63;;;12.30;99.90;;;;;;5032245;28;20030;-70
2023/05/12 04:57:20;;;;;;;25.15;9.98;;;12.30;99.90;;;;;;5027893;28;20478;-70
2023/05/12 04:59:45;;;;;;;29.70;11.77;;;12.30;99.90;;;;;;5035112;28;20474;-71
2023/05/12 05:02:11;;;;;;;26.75;12.85;;;12.30;99.90;;;;;;5034920;28;20120;-72
2023/05/12 05:04:37;;;;;;;29.38;13.68;;;12.30;99.90;;;;;;5035099;28;20120;-70
2023/05/12 05:07:03;;;;;;;30.58;15.07;;;12.40;99.90;;;;;;5035909;28;20485;-70
2023/05/12 05:09:29;;;;;;;33.83;15.88;;;12.40;99.90;;;;;;5035121;28;20041;-70
2023/05/12 05:11:54;;;;;;;36.08;15.70;;;12.50;99.90;;;;;;5028909;28;20087;-70
2023/05/12 05:14:20;;;;;;;39.47;19.20;;;12.50;99.90;;;;;;5034877;28;20253;-71
2023/05/12 05:16:46;;;;;;;43.67;18.38;;;12.60;99.90;;;;;;5035055;28;20064;-70
2023/05/12 05:19:14;;;;;;;42.33;19.85;;;12.60;99.90;;;;;;5034598;28;20105;-71
2023/05/12 05:21:40;;;;;;;49.50;22.67;;;12.60;99.90;;;;;;5034522;28;20112;-69
2023/05/12 05:24:06;;;;;;;49.60;24.42;;;12.60;99.90;;;;;;5033076;28;20128;-69
2023/05/12 05:26:32;;;;;;;39.75;19.42;;;12.70;99.90;;;;;;5034506;28;20349;-70
2023/05/12 05:28:57;;;;;;;45.53;24.23;;;12.70;99.90;;;;;;5021679;28;20030;-71
2023/05/12 05:31:24;;;;;;;50.22;24.33;;;12.80;99.90;;;;;;5033076;28;20048;-71
2023/05/12 05:33:49;;;;;;;46.50;23.10;;;12.80;99.90;;;;;;5034087;28;20035;-71
2023/05/12 05:36:15;;;;;;;44.33;19.75;;;12.90;99.90;;;;;;5034900;28;20021;-70
2023/05/12 05:38:41;;;;;;;43.33;22.92;;;12.90;99.90;;;;;;5034844;28;20068;-69
2023/05/12 05:41:07;;;;;;;41.08;20.83;;;12.90;99.90;;;;;;5034245;28;20025;-70
2023/05/12 05:43:32;;;;;;;41.60;21.33;;;13.00;99.90;;;;;;5034854;28;20033;-72
2023/05/12 05:45:58;;;;;;;36.10;18.02;;;13.00;99.90;;;;;;5034634;28;20022;-70
2023/05/12 05:48:25;;;;;;;45.08;22.27;;;13.10;99.90;;;;;;5034127;28;20527;-71
2023/05/12 05:50:52;;;;;;;42.10;22.05;;;13.10;99.90;;;;;;5031643;28;20033;-70
2023/05/12 05:53:18;;;;;;;44.70;21.40;;;13.10;99.90;;;;;;5041723;28;20025;-69
2023/05/12 05:55:45;;;;;;;41.53;21.08;;;13.10;99.90;;;;;;5034291;28;20100;-69
2023/05/12 05:58:11;;;;;;;45.58;23.05;;;13.10;99.90;;;;;;5033654;28;20104;-71
2023/05/12 06:00:36;;;;;;;40.80;18.60;;;13.10;99.90;;;;;;5032879;28;20104;-70
2023/05/12 06:03:02;;;;;;;38.55;18.77;;;13.10;99.90;;;;;;5033465;28;20027;-72
2023/05/12 06:06:15;;;;;;;47.92;22.55;;;13.10;99.90;;;;;;5031959;28;20382;-70
2023/05/12 06:08:46;;;;;;;39.58;19.92;;;13.10;99.90;;;;;;5029414;28;20041;-72
2023/05/12 06:11:11;;;;;;;44.08;21.60;;;13.10;99.90;;;;;;5033106;28;20474;-70
2023/05/12 06:13:37;;;;;;;44.05;23.20;;;13.10;99.90;;;;;;5032102;28;20381;-71
2023/05/12 06:16:02;;;;;;;46.25;22.35;;;13.10;99.90;;;;;;5033976;28;20034;-70
2023/05/12 06:18:28;;;;;;;46.08;22.63;;;13.10;99.90;;;;;;5031996;28;20029;-71
2023/05/12 06:20:54;;;;;;;38.80;20.15;;;13.20;99.90;;;;;;5031743;28;20017;-70
2023/05/12 06:23:20;;;;;;;40.45;19.50;;;13.30;99.90;;;;;;5033152;28;20041;-70
2023/05/12 06:25:48;;;;;;;40.58;20.48;;;13.30;99.90;;;;;;5033100;28;20334;-70
2023/05/12 06:28:13;;;;;;;41.80;19.90;;;13.30;99.90;;;;;;5032139;28;20498;-70
2023/05/12 06:30:39;;;;;;;41.97;19.20;;;13.30;99.90;;;;;;5032072;28;20116;-72
2023/05/12 06:33:05;;;;;;;47.22;22.75;;;13.40;99.90;;;;;;5033757;28;20474;-71
2023/05/12 06:35:30;;;;;;;45.13;21.67;;;13.40;99.90;;;;;;5032648;28;20052;-70
2023/05/12 06:37:56;;;;;;;44.80;21.40;;;13.40;99.90;;;;;;5031060;28;20045;-72
2023/05/12 06:40:21;;;;;;;44.22;20.95;;;13.50;99.90;;;;;;5033104;28;20029;-72
2023/05/12 06:42:47;;;;;;;37.83;18.98;;;13.60;99.90;;;;;;5033307;28;20101;-70
2023/05/12 06:45:13;;;;;;;48.45;23.10;;;13.70;99.90;;;;;;5033489;28;20045;-70
2023/05/12 06:47:39;;;;;;;46.00;22.90;;;13.70;99.90;;;;;;5033298;28;20528;-72
2023/05/12 06:50:09;;;;;;;44.10;21.23;;;13.80;99.90;;;;;;5030842;28;20025;-73
2023/05/12 06:52:35;;;;;;;41.60;21.65;;;13.80;99.90;;;;;;5032370;28;20098;-72
2023/05/12 06:55:01;;;;;;;41.78;21.40;;;13.90;99.90;;;;;;5030159;28;20034;-70
2023/05/12 06:57:26;;;;;;;40.05;20.83;;;14.00;99.90;;;;;;5033544;28;20373;-70
2023/05/12 06:59:52;;;;;;;38.00;20.00;;;14.00;99.90;;;;;;5033980;28;20033;-71
2023/05/12 07:02:17;;;;;;;39.25;20.83;;;14.10;99.90;;;;;;5033236;28;20064;-71
2023/05/12 07:04:43;;;;;;;38.75;19.65;;;14.10;99.90;;;;;;5031712;28;20041;-70
2023/05/12 07:07:09;;;;;;;39.25;20.73;;;14.20;99.90;;;;;;5032945;28;20029;-71
2023/05/12 07:09:34;;;;;;;36.00;20.08;;;14.20;99.90;;;;;;5032372;28;20120;-70
2023/05/12 07:12:00;;;;;;;37.38;20.40;;;14.30;99.90;;;;;;5029477;28;20021;-71
2023/05/12 07:14:25;;;;;;;36.95;20.23;;;14.50;99.90;;;;;;5024346;28;20396;-71
2023/05/12 07:16:51;;;;;;;30.52;17.02;;;14.60;99.90;;;;;;5032867;28;20038;-71
2023/05/12 07:19:17;;;;;;;38.63;21.00;;;14.70;99.90;;;;;;5035180;28;20029;-72
2023/05/12 07:21:42;;;;;;;35.25;17.95;;;14.80;99.90;;;;;;5043273;28;20042;-70
2023/05/12 07:24:08;;;;;;;29.63;17.10;;;14.90;99.90;;;;;;5026258;28;20072;-70
2023/05/12 07:26:34;;;;;;;29.45;17.85;;;15.30;99.90;;;;;;5030723;28;20029;-69
2023/05/12 07:29:00;;;;;;;29.65;15.80;;;15.70;99.90;;;;;;5031809;28;20532;-70
2023/05/12 07:31:25;;;;;;;30.33;16.67;;;16.10;99.90;;;;;;5026108;28;20057;-71
2023/05/12 07:33:53;;;;;;;31.15;16.10;;;16.30;99.90;;;;;;5032436;28;20096;-71
2023/05/12 07:36:19;;;;;;;25.88;14.07;;;16.60;99.90;;;;;;5031545;28;20035;-70
2023/05/12 07:38:45;;;;;;;25.70;14.10;;;17.10;99.90;;;;;;5032232;28;20053;-70
2023/05/12 07:41:10;;;;;;;25.98;13.52;;;17.40;99.90;;;;;;5031995;28;20087;-70
2023/05/12 07:43:36;;;;;;;23.33;13.40;;;17.40;99.90;;;;;;5030049;28;20454;-71
2023/05/12 07:46:02;;;;;;;25.33;14.32;;;17.40;99.90;;;;;;5031323;28;20091;-71
2023/05/12 07:48:28;;;;;;;27.42;13.15;;;17.50;99.90;;;;;;5029251;28;20034;-71
2023/05/12 07:50:53;;;;;;;25.90;14.18;;;17.80;99.90;;;;;;5030836;28;20109;-71
2023/05/12 07:53:19;;;;;;;25.95;14.20;;;18.00;99.90;;;;;;5030579;28;20096;-71
2023/05/12 07:55:45;;;;;;;24.33;13.75;;;18.10;99.90;;;;;;5031699;28;20442;-72
2023/05/12 07:58:11;;;;;;;24.10;12.95;;;18.10;99.90;;;;;;5031759;28;20017;-71
2023/05/12 08:00:39;;;;;;;28.60;14.73;;;18.10;99.90;;;;;;5031470;28;20036;-71
2023/05/12 08:03:06;;;;;;;24.83;13.60;;;18.10;99.90;;;;;;5032013;28;20033;-72
2023/05/12 08:05:32;;;;;;;23.40;13.45;;;18.00;99.90;;;;;;5031980;28;20103;-71
2023/05/12 08:07:57;;;;;;;25.90;13.82;;;18.10;99.90;;;;;;5029136;28;20060;-71
2023/05/12 08:10:28;;;;;;;23.58;14.07;;;18.10;99.90;;;;;;5032077;28;20394;-72
2023/05/12 08:12:55;;;;;;;25.17;13.80;;;18.20;99.90;;;;;;5030215;28;20183;-72
2023/05/12 08:15:23;;;;;;;24.40;13.52;;;18.40;99.90;;;;;;5030149;28;20025;-71
2023/05/12 08:17:48;;;;;;;21.40;11.25;;;18.70;99.90;;;;;;5030007;28;20033;-72
2023/05/12 08:20:14;;;;;;;25.45;13.15;;;18.70;99.90;;;;;;5029562;28;20028;-71
2023/05/12 08:22:42;;;;;;;21.83;12.20;;;18.60;99.90;;;;;;5029067;28;20146;-72
2023/05/12 08:25:08;;;;;;;23.15;12.73;;;18.50;99.90;;;;;;5027707;28;20037;-72
2023/05/12 08:27:34;;;;;;;25.45;13.10;;;18.60;99.90;;;;;;5029841;28;20021;-72
2023/05/12 08:29:59;;;;;;;22.58;12.55;;;18.80;99.90;;;;;;5031646;28;20030;-72
2023/05/12 08:32:25;;;;;;;23.25;13.00;;;19.10;99.90;;;;;;5031913;28;20106;-72
2023/05/12 08:34:51;;;;;;;21.65;12.35;;;19.40;99.90;;;;;;5031832;28;20045;-72
2023/05/12 08:37:17;;;;;;;22.50;12.00;;;19.70;99.90;;;;;;5031620;28;20049;-73
2023/05/12 08:39:42;;;;;;;23.73;13.10;;;20.00;99.90;;;;;;5031168;28;20512;-73
2023/05/12 08:42:36;;;;;;;20.77;12.23;;;20.60;99.90;;;;;;5029181;28;20041;-72
2023/05/12 08:45:02;;;;;;;20.38;10.18;;;20.90;99.90;;;;;;5026612;28;20543;-73
2023/05/12 08:47:31;;;;;;;21.83;11.57;;;21.40;99.90;;;;;;5031374;28;20079;-73
2023/05/12 08:50:02;;;;;;;21.80;10.52;;;21.80;99.90;;;;;;5026550;28;20358;-73
2023/05/12 08:52:33;;;;;;;21.65;11.98;;;22.00;99.90;;;;;;5031068;28;20025;-71
2023/05/12 08:54:59;;;;;;;19.85;10.23;;;21.90;99.90;;;;;;5030646;28;20033;-72
2023/05/12 08:57:25;;;;;;;22.35;12.48;;;21.80;99.90;;;;;;5029736;28;20040;-71
2023/05/12 08:59:55;;;;;;;20.67;12.23;;;21.60;99.90;;;;;;5024942;28;20221;-72
2023/05/12 09:02:24;;;;;;;22.52;11.80;;;21.30;99.90;;;;;;5031511;28;20497;-71
2023/05/12 09:04:53;;;;;;;21.27;12.07;;;21.40;99.90;;;;;;5030878;28;20038;-73
2023/05/12 09:07:19;;;;;;;21.70;11.40;;;21.60;99.90;;;;;;5031967;28;20539;-70
2023/05/12 09:09:51;;;;;;;21.45;10.98;;;22.10;99.90;;;;;;5031525;28;20079;-72
2023/05/12 09:12:18;;;;;;;22.87;11.57;;;22.40;99.90;;;;;;5031368;28;20026;-73
2023/05/12 09:14:45;;;;;;;22.95;11.20;;;22.50;99.90;;;;;;5031590;28;20048;-73
2023/05/12 09:17:11;;;;;;;23.35;11.57;;;22.50;99.90;;;;;;5025554;28;20057;-72
2023/05/12 09:19:37;;;;;;;20.30;10.88;;;22.40;99.90;;;;;;5031351;28;20057;-73
2023/05/12 09:22:02;;;;;;;22.60;12.88;;;22.30;99.90;;;;;;5030469;28;20026;-72
2023/05/12 09:24:36;;;;;;;20.77;11.38;;;22.50;99.90;;;;;;5027106;28;20611;-73
2023/05/12 09:27:02;;;;;;;19.13;10.07;;;22.80;99.90;;;;;;5029787;28;20025;-72
2023/05/12 09:29:29;;;;;;;20.23;11.07;;;23.30;99.90;;;;;;5034866;28;20527;-73
2023/05/12 09:32:00;;;;;;;22.65;12.05;;;23.70;99.90;;;;;;5035114;28;20040;-73
2023/05/12 09:34:41;;;;;;;17.98;9.63;;;24.00;99.90;;;;;;5033684;28;20037;-73
2023/05/12 09:37:07;;;;;;;18.13;9.88;;;24.40;99.90;;;;;;5035147;28;20041;-73
2023/05/12 09:39:33;;;;;;;19.73;11.55;;;24.90;99.90;;;;;;5034666;28;20109;-72
2023/05/12 09:41:59;;;;;;;19.38;11.77;;;25.20;99.90;;;;;;5027609;28;20026;-73
2023/05/12 09:44:27;;;;;;;21.23;11.75;;;25.00;99.70;;;;;;5049689;28;20033;-73
2023/05/12 09:46:53;;;;;;;18.98;11.93;;;24.90;99.90;;;;;;5043238;28;20040;-72
2023/05/12 09:49:25;;;;;;;17.83;10.32;;;25.00;99.90;;;;;;5041733;28;20034;-72
2023/05/12 09:51:52;;;;;;;21.55;11.13;;;25.50;99.40;;;;;;5029702;28;20034;-72
2023/05/12 09:54:29;;;;;;;17.70;10.07;;;25.90;98.90;;;;;;5041338;28;20073;-72
2023/05/12 09:57:01;;;;;;;19.02;10.52;;;26.20;98.50;;;;;;5036155;28;20080;-73
2023/05/12 09:59:40;;;;;;;18.75;10.85;;;26.50;98.00;;;;;;5028361;28;20061;-72
2023/05/12 10:02:15;;;;;;;19.65;11.02;;;26.30;97.70;;;;;;5028053;28;20025;-73
2023/05/12 10:04:54;;;;;;;21.58;11.50;;;25.70;98.20;;;;;;5023403;28;20045;-71
2023/05/12 10:07:24;;;;;;;20.00;11.13;;;25.20;98.50;;;;;;5035043;28;20040;-72
2023/05/12 10:09:51;;;;;;;19.95;11.38;;;24.60;99.30;;;;;;5033890;28;20041;-71
2023/05/12 10:12:17;;;;;;;20.17;11.82;;;24.10;99.80;;;;;;5034167;28;20033;-71
2023/05/12 10:14:43;;;;;;;20.60;11.20;;;23.60;99.90;;;;;;5033512;28;20500;-71
2023/05/12 10:17:09;;;;;;;20.80;10.35;;;23.30;99.90;;;;;;5036874;28;20102;-71
2023/05/12 10:19:35;;;;;;;20.17;11.30;;;22.90;99.90;;;;;;5033838;28;20049;-71
2023/05/12 10:22:01;;;;;;;19.13;10.20;;;22.60;99.90;;;;;;5034062;28;20026;-71
2023/05/12 10:24:27;;;;;;;20.30;10.75;;;22.40;99.90;;;;;;5033291;28;20041;-72
2023/05/12 10:26:55;;;;;;;19.42;11.20;;;22.20;99.90;;;;;;5037962;28;20053;-72
2023/05/12 10:29:28;;;;;;;19.95;10.73;;;21.90;99.90;;;;;;5034412;28;20037;-72
2023/05/12 10:31:57;;;;;;;19.02;10.93;;;21.90;99.90;;;;;;5030450;28;20026;-72
2023/05/12 10:34:38;;;;;;;21.25;10.60;;;21.80;99.90;;;;;;5036845;28;21008;-72
2023/05/12 10:37:08;;;;;;;19.42;12.05;;;21.80;99.90;;;;;;5022830;28;20021;-71
2023/05/12 10:39:45;;;;;;;20.70;11.57;;;21.90;99.90;;;;;;5027845;28;20095;-71
2023/05/12 10:42:10;;;;;;;21.10;10.75;;;22.20;99.90;;;;;;5038509;28;20029;-71
2023/05/12 10:44:46;;;;;;;19.63;10.88;;;22.60;99.90;;;;;;5048439;28;20045;-72
2023/05/12 10:47:13;;;;;;;21.58;10.88;;;23.20;99.90;;;;;;5042231;28;20032;-72
2023/05/12 10:49:42;;;;;;;21.35;10.88;;;23.60;99.90;;;;;;5041349;28;20026;-71
2023/05/12 10:52:11;;;;;;;18.33;10.00;;;24.30;99.90;;;;;;5033929;28;20057;-72
2023/05/12 10:54:44;;;;;;;16.52;9.70;;;25.40;99.30;;;;;;5049171;28;20032;-72
2023/05/12 10:57:14;;;;;;;16.85;9.45;;;26.40;98.20;;;;;;5032486;28;20029;-72
2023/05/12 10:59:56;;;;;;;18.63;9.90;;;26.80;97.40;;;;;;5033392;28;20029;-71
2023/05/12 11:02:31;;;;;;;17.73;9.13;;;26.80;96.90;;;;;;5031310;28;20037;-71
2023/05/12 11:05:03;;;;;;;18.23;9.70;;;26.80;96.50;;;;;;5044732;28;20090;-72
2023/05/12 11:07:29;;;;;;;;;;;27.00;96.20;;;;;;5034105;28;20036;-71
2023/05/12 11:09:56;;;;;;;16.08;9.50;;;27.00;96.10;;;;;;5033847;28;19996;-72
2023/05/12 11:12:25;;;;;;;16.73;8.85;;;27.30;95.80;;;;;;5034739;28;20041;-72
2023/05/12 11:14:50;;;;;;;17.38;9.50;;;27.90;95.60;;;;;;5016818;28;20108;-71
2023/05/12 11:17:16;;;;;;;12.40;7.30;;;28.40;95.10;;;;;;5030950;28;20549;-72
2023/05/12 11:20:03;;;;;;;15.68;8.45;;;28.50;94.50;;;;;;5029559;28;20034;-72
2023/05/12 11:22:31;;;;;;;14.50;7.68;;;29.00;93.90;;;;;;5031632;28;20831;-71
2023/05/12 11:25:11;;;;;;;13.13;7.68;;;29.50;93.20;;;;;;5031766;28;20051;-73
2023/05/12 11:27:41;;;;;;;12.93;7.60;;;29.70;92.80;;;;;;5033468;28;20457;-72
2023/05/12 11:30:15;;;;;;;13.45;7.93;;;29.80;92.50;;;;;;5033128;28;20036;-72
2023/05/12 11:32:42;;;;;;;14.57;7.97;;;29.60;92.80;;;;;;5032302;28;20037;-72
2023/05/12 11:35:13;;;;;;;13.25;7.97;;;29.60;92.50;;;;;;5036070;28;20385;-72
2023/05/12 11:37:40;;;;;;;13.30;7.80;;;29.80;91.80;;;;;;5032792;28;20072;-72
2023/05/12 11:40:21;;;;;;;12.85;7.53;;;29.60;91.80;;;;;;5033181;28;20438;-72
2023/05/12 11:42:50;;;;;;;13.68;7.30;;;29.30;92.10;;;;;;5031960;28;20030;-72
2023/05/12 11:45:24;;;;;;;12.52;6.95;;;28.90;92.00;;;;;;5033090;28;20049;-72
2023/05/12 11:47:51;;;;;;;12.60;7.00;;;28.70;92.50;;;;;;5033096;28;20107;-72
2023/05/12 11:50:22;;;;;;;13.48;7.25;;;29.00;92.10;;;;;;5031864;28;20516;-72
2023/05/12 11:52:47;;;;;;;12.48;6.95;;;29.60;91.40;;;;;;5031363;28;20056;-72
2023/05/12 11:55:21;;;;;;;10.75;6.65;;;30.20;91.10;;;;;;5033022;28;20029;-72
2023/05/12 11:58:01;;;;;;;11.02;6.65;;;30.50;90.60;;;;;;5030673;28;20025;-73
2023/05/12 12:00:29;;;;;;;12.43;6.38;;;30.50;90.80;;;;;;5026485;28;20056;-72
2023/05/12 12:03:10;;;;;;;12.23;7.32;;;30.90;90.40;;;;;;5018521;28;20017;-72
2023/05/12 12:05:36;;;;;;;11.75;6.40;;;30.70;89.70;;;;;;5028496;28;20037;-72
2023/05/12 12:08:13;;;;;;;9.77;6.00;;;30.70;88.80;;;;;;5032568;28;20037;-72
2023/05/12 12:10:43;;;;;;;9.10;6.05;;;31.30;89.80;;;;;;5036020;28;20033;-72
2023/05/12 12:13:08;;;;;;;9.95;5.57;;;31.70;87.00;;;;;;5037156;28;20021;-72
2023/05/12 12:15:34;;;;;;;12.55;5.47;;;31.40;86.40;;;;;;5032671;28;20079;-72
2023/05/12 12:17:59;;;;;;;10.50;5.97;;;30.70;87.10;;;;;;5044255;28;20029;-71
2023/05/12 12:20:25;;;;;;;8.35;5.88;;;30.40;87.30;;;;;;5047070;28;20071;-71
2023/05/12 12:22:52;;;;;;;10.43;5.63;;;30.20;87.80;;;;;;5040968;28;20033;-71
2023/05/12 12:25:18;;;;;;;9.38;5.38;;;29.70;88.00;;;;;;5048614;28;20041;-71
2023/05/12 12:27:44;;;;;;;8.55;5.50;;;29.20;87.30;;;;;;5033287;28;20038;-71
2023/05/12 12:30:10;;;;;;;8.77;4.97;;;29.00;87.90;;;;;;5032211;28;20466;-72
2023/05/12 12:32:36;;;;;;;10.27;5.05;;;28.90;88.80;;;;;;5042559;28;20036;-70